createdAt,value
2022-08-12T04:02:40.507Z,5.23
2022-08-12T04:05:14.041Z,5.37
2022-08-12T04:07:58.603Z,5.37
2022-08-12T04:10:51.173Z,5.33
2022-08-12T04:13:21.769Z,5.27
2022-08-12T04:15:50.125Z,5.20
2022-08-12T04:18:19.765Z,5.30
2022-08-12T04:20:49.874Z,5.30
2022-08-12T04:23:18.680Z,5.30
2022-08-12T04:25:46.837Z,5.30
2022-08-12T04:28:14.900Z,5.33
2022-08-12T04:30:43.202Z,5.30
2022-08-12T04:33:12.785Z,5.20
2022-08-12T04:35:42.128Z,5.17
2022-08-12T04:38:11.086Z,5.30
2022-08-12T04:40:40.080Z,5.23
2022-08-12T04:44:00.528Z,5.27
2022-08-12T04:45:58.158Z,5.30
2022-08-12T04:48:26.277Z,5.27
2022-08-12T04:50:58.749Z,5.30
2022-08-12T04:53:28.067Z,5.30
2022-08-12T04:55:56.390Z,5.27
2022-08-12T04:58:29.320Z,5.17
2022-08-12T05:00:58.379Z,5.27
2022-08-12T05:03:27.404Z,5.40
2022-08-12T05:05:57.592Z,5.30
2022-08-12T05:08:26.777Z,5.40
2022-08-12T05:10:55.081Z,5.40
2022-08-12T05:13:27.230Z,5.30
2022-08-12T05:16:04.302Z,5.40
2022-08-12T05:18:35.430Z,5.40
2022-08-12T05:21:10.669Z,5.40
2022-08-12T05:23:40.781Z,5.43
2022-08-12T05:26:08.886Z,5.40
2022-08-12T05:28:38.282Z,5.37
2022-08-12T05:31:06.838Z,5.40
2022-08-12T05:33:38.253Z,5.33
2022-08-12T05:36:09.613Z,5.50
2022-08-12T05:38:55.654Z,5.40
2022-08-12T05:41:24.890Z,5.40
2022-08-12T05:43:55.375Z,5.40
2022-08-12T05:46:25.501Z,5.47
2022-08-12T05:48:55.298Z,5.43
2022-08-12T05:51:41.155Z,5.40
2022-08-12T05:54:11.523Z,5.43
2022-08-12T05:56:41.278Z,5.47
2022-08-12T05:59:12.204Z,5.43
2022-08-12T06:02:12.153Z,5.43
2022-08-12T06:04:32.180Z,5.43
2022-08-12T06:07:02.662Z,5.37
2022-08-12T06:09:50.666Z,5.50
2022-08-12T06:12:23.369Z,5.33
2022-08-12T06:14:51.405Z,5.40
2022-08-12T06:17:19.444Z,5.50
2022-08-12T06:20:26.482Z,5.40
2022-08-12T06:22:39.581Z,5.47
2022-08-12T06:25:09.325Z,5.40
2022-08-12T06:28:07.441Z,5.40
2022-08-12T06:30:39.379Z,5.47
2022-08-12T06:33:54.973Z,5.40
2022-08-12T06:35:58.846Z,5.40
2022-08-12T06:38:31.338Z,5.47
2022-08-12T06:41:18.564Z,5.43
2022-08-12T06:44:05.752Z,5.47
2022-08-12T06:46:38.691Z,5.40
2022-08-12T06:49:07.009Z,5.40
2022-08-12T06:51:35.333Z,5.50
2022-08-12T06:54:05.159Z,5.40
2022-08-12T06:57:02.610Z,5.40
2022-08-12T06:59:22.932Z,5.47
2022-08-12T07:01:52.059Z,5.43
2022-08-12T07:04:38.324Z,5.40
2022-08-12T07:07:08.390Z,5.43
2022-08-12T07:10:03.613Z,5.50
2022-08-12T07:12:27.995Z,5.40
2022-08-12T07:14:57.924Z,5.43
2022-08-12T07:17:35.811Z,6.57
2022-08-12T07:20:06.856Z,5.47
2022-08-12T07:22:35.232Z,5.33
2022-08-12T07:25:23.287Z,5.37
2022-08-12T07:27:55.753Z,5.40
2022-08-12T07:30:24.277Z,5.40
2022-08-12T07:32:52.545Z,5.40
2022-08-12T07:35:21.694Z,5.33
2022-08-12T07:37:50.469Z,5.30
2022-08-12T07:40:21.163Z,5.40
2022-08-12T07:42:49.563Z,5.40
2022-08-12T07:45:19.498Z,5.23
2022-08-12T07:47:48.848Z,5.87
2022-08-12T07:50:25.347Z,5.40
2022-08-12T07:52:53.498Z,5.40
2022-08-12T07:55:22.957Z,5.30
2022-08-12T07:57:55.842Z,5.23
2022-08-12T08:00:24.863Z,5.30
2022-08-12T08:02:54.400Z,5.33
2022-08-12T08:05:24.929Z,5.27
2022-08-12T08:07:57.524Z,5.20
2022-08-12T08:10:27.096Z,5.30
2022-08-12T08:12:54.782Z,5.20
2022-08-12T08:15:44.564Z,5.27
2022-08-12T08:18:26.492Z,5.30
2022-08-12T08:20:57.251Z,5.40
2022-08-12T08:23:55.810Z,5.30
2022-08-12T08:26:27.118Z,5.30
2022-08-12T08:28:55.523Z,5.30
2022-08-12T08:31:23.751Z,5.20
2022-08-12T08:34:04.781Z,5.30
2022-08-12T08:36:40.104Z,5.60
2022-08-12T08:39:12.724Z,5.30
2022-08-12T08:42:17.368Z,5.30
2022-08-12T08:44:49.714Z,5.17
2022-08-12T08:47:26.044Z,5.20
2022-08-12T08:49:57.356Z,5.33
2022-08-12T08:52:38.925Z,5.20
2022-08-12T08:55:10.686Z,5.20
2022-08-12T08:57:44.702Z,5.20
2022-08-12T09:00:17.888Z,5.30
2022-08-12T09:02:49.115Z,5.20
2022-08-12T09:05:26.460Z,5.27
2022-08-12T09:10:45.397Z,5.30
2022-08-12T09:14:10.961Z,5.20
2022-08-12T09:16:21.278Z,5.17
2022-08-12T09:18:52.447Z,7.20
2022-08-12T09:21:23.154Z,5.20
2022-08-12T09:23:57.107Z,5.17
2022-08-12T09:26:30.697Z,5.17
2022-08-12T09:29:00.623Z,5.23
2022-08-12T09:32:04.383Z,5.10
2022-08-12T09:34:29.083Z,5.20
2022-08-12T09:37:20.349Z,5.17
2022-08-12T09:40:04.170Z,18.50
2022-08-12T09:43:15.371Z,5.17
2022-08-12T09:46:06.327Z,5.13
2022-08-12T09:48:39.109Z,5.13
2022-08-12T09:51:11.061Z,5.10
2022-08-12T09:53:45.642Z,5.07
2022-08-12T09:57:02.065Z,5.07
2022-08-12T09:59:09.919Z,5.10
2022-08-12T10:02:42.115Z,5.10
2022-08-12T10:04:30.248Z,8.60
2022-08-12T10:06:58.557Z,5.93
2022-08-12T10:09:57.308Z,5.10
2022-08-12T10:13:07.015Z,5.10
2022-08-12T10:16:02.480Z,5.07
2022-08-12T10:18:23.569Z,5.13
2022-08-12T10:20:54.408Z,5.03
2022-08-12T10:23:40.288Z,5.07
2022-08-12T10:26:37.309Z,5.00
2022-08-12T10:30:38.841Z,5.00
2022-08-12T10:32:43.213Z,4.90
2022-08-12T10:35:10.725Z,4.90
2022-08-12T10:38:33.494Z,4.90
2022-08-12T10:40:32.298Z,4.83
2022-08-12T10:43:18.696Z,4.77
2022-08-12T10:45:49.343Z,4.80
2022-08-12T10:48:26.833Z,4.80
2022-08-12T10:52:03.093Z,4.70
2022-08-12T10:54:00.684Z,4.60
2022-08-12T10:56:34.576Z,4.60
2022-08-12T10:59:10.761Z,4.50
2022-08-12T11:04:18.106Z,4.43
2022-08-12T11:04:45.226Z,4.47
2022-08-12T11:08:38.875Z,4.40
2022-08-12T11:10:08.706Z,4.30
2022-08-12T11:12:59.929Z,4.30
2022-08-12T11:16:02.807Z,4.30
2022-08-12T11:18:18.303Z,4.33
2022-08-12T11:20:48.951Z,4.23
2022-08-12T11:23:24.656Z,4.20
2022-08-12T11:26:06.752Z,4.13
2022-08-12T11:28:37.412Z,13.83
2022-08-12T11:31:10.062Z,4.00
2022-08-12T11:34:05.907Z,4.00
2022-08-12T11:36:30.633Z,3.90
2022-08-12T11:39:04.216Z,3.80
2022-08-12T11:41:33.372Z,3.60
2022-08-12T11:44:36.004Z,3.50
2022-08-12T11:46:52.918Z,3.45
2022-08-12T11:49:31.458Z,3.33
2022-08-12T11:52:03.068Z,3.30
2022-08-12T11:54:33.439Z,3.38
2022-08-12T11:58:01.219Z,3.35
2022-08-12T12:02:41.740Z,3.20
2022-08-12T12:05:10.531Z,3.25
2022-08-12T12:08:39.005Z,3.50
2022-08-12T12:10:31.351Z,3.20
2022-08-12T12:12:59.472Z,3.20
2022-08-12T12:15:40.647Z,3.20
2022-08-12T12:18:22.326Z,3.20
2022-08-12T12:20:51.968Z,3.10
2022-08-12T12:23:29.054Z,2.97
2022-08-12T12:26:06.968Z,2.83
2022-08-12T12:28:39.758Z,2.80
2022-08-12T12:31:14.807Z,3.05
2022-08-12T12:33:57.180Z,3.38
2022-08-12T12:36:30.046Z,3.50
2022-08-12T12:39:00.238Z,3.40
2022-08-12T12:42:42.528Z,3.22
2022-08-12T12:44:25.901Z,2.88
2022-08-12T12:47:29.230Z,2.65
2022-08-12T12:49:54.697Z,2.58
2022-08-12T12:52:26.890Z,2.70
2022-08-12T12:54:58.500Z,2.67
2022-08-12T12:57:36.042Z,2.70
2022-08-12T13:00:18.527Z,2.60
2022-08-12T13:02:54.036Z,2.45
2022-08-12T13:05:27.985Z,2.25
2022-08-12T13:08:01.441Z,2.20
2022-08-12T13:10:36.958Z,2.10
2022-08-12T13:14:06.851Z,1.90
2022-08-12T13:15:59.393Z,1.70
2022-08-12T13:18:31.494Z,1.80
2022-08-12T13:20:59.843Z,2.00
2022-08-12T13:23:36.757Z,2.20
2022-08-12T13:26:07.711Z,2.22
2022-08-12T13:28:53.230Z,2.22
2022-08-12T13:31:25.119Z,2.58
2022-08-12T13:34:33.192Z,2.67
2022-08-12T13:36:45.235Z,2.60
2022-08-12T13:39:16.256Z,2.50
2022-08-12T13:41:44.704Z,2.60
2022-08-12T13:44:14.319Z,2.70
2022-08-12T13:46:42.451Z,2.83
2022-08-12T13:49:20.448Z,3.00
2022-08-12T13:52:01.766Z,3.38
2022-08-12T13:54:30.266Z,3.53
2022-08-12T13:56:58.281Z,3.67
2022-08-12T13:59:27.720Z,3.65
2022-08-12T14:01:57.400Z,3.33
2022-08-12T14:04:25.636Z,3.10
2022-08-12T14:06:55.567Z,2.67
2022-08-12T14:09:23.621Z,2.42
2022-08-12T14:11:59.748Z,2.20
2022-08-12T14:14:31.025Z,2.10
2022-08-12T14:17:02.095Z,1.95
2022-08-12T14:19:38.070Z,1.90
2022-08-12T14:22:14.477Z,1.83
2022-08-12T14:24:43.677Z,1.70
2022-08-12T14:27:13.603Z,1.83
2022-08-12T14:30:06.193Z,2.33
2022-08-12T14:32:35.979Z,2.22
2022-08-12T14:35:09.540Z,2.67
2022-08-12T14:37:56.541Z,3.40
2022-08-12T14:40:29.620Z,3.55
2022-08-12T14:42:59.432Z,3.53
2022-08-12T14:45:44.816Z,3.40
2022-08-12T14:48:19.434Z,3.20
2022-08-12T14:51:02.583Z,2.90
2022-08-12T14:55:13.899Z,2.70
2022-08-12T14:59:57.568Z,2.50
2022-08-12T15:02:28.563Z,2.40
2022-08-12T15:04:58.979Z,2.20
2022-08-12T15:07:33.868Z,2.30
2022-08-12T15:10:24.954Z,2.42
2022-08-12T15:13:05.659Z,2.30
2022-08-12T15:15:45.469Z,2.20
2022-08-12T15:18:21.163Z,2.30
2022-08-12T15:20:51.834Z,2.30
2022-08-12T15:23:22.204Z,2.40
2022-08-12T15:26:03.079Z,2.40
2022-08-12T15:28:35.932Z,2.40
2022-08-12T15:31:21.711Z,2.40
2022-08-12T15:33:57.906Z,2.40
2022-08-12T15:36:53.530Z,2.30
2022-08-12T15:39:17.193Z,2.20
2022-08-12T15:41:49.481Z,2.20
2022-08-12T15:44:38.654Z,2.20
2022-08-12T15:47:08.678Z,2.20
2022-08-12T15:49:54.458Z,2.10
2022-08-12T15:52:28.700Z,2.10
2022-08-12T15:54:59.438Z,2.03
2022-08-12T15:57:34.583Z,2.10
2022-08-12T16:00:06.890Z,2.00
2022-08-12T16:02:47.281Z,2.00
2022-08-12T16:06:10.163Z,1.90
2022-08-12T16:08:18.343Z,2.10
2022-08-12T16:10:48.681Z,2.20
2022-08-12T16:13:25.408Z,2.55
2022-08-12T16:16:03.639Z,2.70
2022-08-12T16:18:35.616Z,2.83
2022-08-12T16:21:09.136Z,3.10
2022-08-12T16:23:55.227Z,3.30
2022-08-12T16:26:27.602Z,3.53
2022-08-12T16:29:14.903Z,3.70
2022-08-12T16:31:45.110Z,3.83
2022-08-12T16:34:25.982Z,3.97
2022-08-12T16:37:07.854Z,4.17
2022-08-12T16:40:00.268Z,4.40
2022-08-12T16:42:28.181Z,4.37
2022-08-12T16:44:59.324Z,4.40
2022-08-12T16:47:28.131Z,4.30
2022-08-12T16:49:57.787Z,4.23
2022-08-12T16:52:27.710Z,4.20
2022-08-12T16:54:56.462Z,4.17
2022-08-12T16:57:34.652Z,4.00
2022-08-12T17:00:06.164Z,4.07
2022-08-12T17:02:36.854Z,3.90
2022-08-12T17:05:12.560Z,3.87
2022-08-12T17:07:47.227Z,3.93
2022-08-12T17:10:36.732Z,4.00
2022-08-12T17:13:10.130Z,4.20
2022-08-12T17:15:56.959Z,4.33
2022-08-12T17:18:43.541Z,4.47
2022-08-12T17:21:20.311Z,4.67
2022-08-12T17:24:15.031Z,4.80
2022-08-12T17:26:49.140Z,5.00
2022-08-12T17:29:24.241Z,5.03
2022-08-12T17:32:11.307Z,5.00
2022-08-12T17:35:00.045Z,4.97
2022-08-12T17:37:28.706Z,4.83
2022-08-12T17:40:16.018Z,4.70
2022-08-12T17:42:48.225Z,4.60
2022-08-12T17:45:19.729Z,4.47
2022-08-12T17:48:00.807Z,4.50
2022-08-12T17:50:32.463Z,4.50
2022-08-12T17:53:02.787Z,4.60
2022-08-12T17:55:43.982Z,4.80
2022-08-12T17:58:18.297Z,4.87
2022-08-12T18:00:47.430Z,4.97
2022-08-12T18:04:05.478Z,5.07
2022-08-12T18:06:14.151Z,5.13
2022-08-12T18:08:54.627Z,5.13
2022-08-12T18:12:04.697Z,5.20
2022-08-12T18:14:31.180Z,5.27
2022-08-12T18:17:02.446Z,5.30
2022-08-12T18:20:04.091Z,5.30
2022-08-12T18:22:21.996Z,5.33
2022-08-12T18:25:02.617Z,5.30
2022-08-12T18:27:44.181Z,5.33
2022-08-12T18:30:20.343Z,5.40
2022-08-12T18:32:59.126Z,5.50
2022-08-12T18:35:53.039Z,5.50
2022-08-12T18:38:24.648Z,5.43
2022-08-12T18:41:21.373Z,5.50
2022-08-12T18:43:59.862Z,5.47
2022-08-12T18:46:37.461Z,5.50
2022-08-12T18:49:18.709Z,5.47
2022-08-12T18:52:04.593Z,5.57
2022-08-12T18:54:36.090Z,5.60
2022-08-12T18:57:16.310Z,5.70
2022-08-12T19:00:02.408Z,5.70
2022-08-12T19:02:39.630Z,5.70
2022-08-12T19:05:11.947Z,5.67
2022-08-12T19:08:00.120Z,5.67
2022-08-12T19:10:31.923Z,5.60
2022-08-12T19:13:23.114Z,5.70
2022-08-12T19:15:58.070Z,5.63
2022-08-12T19:18:29.981Z,5.67
2022-08-12T19:21:06.466Z,5.60
2022-08-12T19:23:40.781Z,5.67
2022-08-12T19:26:10.780Z,5.70
2022-08-12T19:28:41.629Z,5.60
2022-08-12T19:31:44.961Z,5.60
2022-08-12T19:37:27.063Z,5.63
2022-08-12T19:40:10.060Z,5.60
2022-08-12T19:43:00.874Z,5.60
2022-08-12T19:45:43.492Z,5.57
2022-08-12T19:48:20.364Z,5.63
2022-08-12T19:50:52.288Z,5.57
2022-08-12T19:53:23.361Z,5.63
2022-08-12T19:55:54.838Z,5.53
2022-08-12T19:58:24.990Z,5.60
2022-08-12T20:00:54.584Z,5.60
2022-08-12T20:03:38.253Z,5.67
2022-08-12T20:06:15.325Z,5.63
2022-08-12T20:08:49.136Z,5.53
2022-08-12T20:12:09.954Z,5.57
2022-08-12T20:14:18.058Z,5.57
2022-08-12T20:16:53.124Z,5.60
2022-08-12T20:19:52.175Z,5.57
2022-08-12T20:22:24.565Z,5.60
2022-08-12T20:25:01.439Z,5.50
2022-08-12T20:28:04.935Z,5.53
2022-08-12T20:30:37.727Z,5.57
2022-08-12T20:33:17.646Z,5.60
2022-08-12T20:36:06.409Z,5.57
2022-08-12T20:38:39.401Z,5.57
2022-08-12T20:41:16.826Z,5.50
2022-08-12T20:43:54.771Z,5.50
2022-08-12T20:46:27.988Z,5.60
2022-08-12T20:48:57.571Z,5.60
2022-08-12T20:51:51.135Z,5.57
2022-08-12T20:54:18.411Z,5.57
2022-08-12T20:56:47.105Z,5.60
2022-08-12T20:59:20.138Z,5.60
